sensor_id;sensor_type;location;lat;lon;timestamp;temperature;humidity
12419;DHT22;6273;52.312;9.178;2022-09-09T00:02:22;15.20;99.90
12419;DHT22;6273;52.312;9.178;2022-09-09T00:05:04;15.30;99.90
12419;DHT22;6273;52.312;9.178;2022-09-09T00:24:38;15.20;99.90
12419;DHT22;6273;52.312;9.178;2022-09-09T00:40:00;15.10;99.90
12419;DHT22;6273;52.312;9.178;2022-09-09T00:42:42;15.10;99.90
12419;DHT22;6273;52.312;9.178;2022-09-09T00:47:48;15.10;99.90
12419;DHT22;6273;52.312;9.178;2022-09-09T00:50:35;15.10;99.90
12419;DHT22;6273;52.312;9.178;2022-09-09T00:53:21;15.20;99.90
12419;DHT22;6273;52.312;9.178;2022-09-09T00:58:31;15.20;99.90
12419;DHT22;6273;52.312;9.178;2022-09-09T01:01:16;15.30;99.90
12419;DHT22;6273;52.312;9.178;2022-09-09T01:03:53;15.40;99.90
12419;DHT22;6273;52.312;9.178;2022-09-09T01:17:24;15.50;99.90
12419;DHT22;6273;52.312;9.178;2022-09-09T01:19:59;15.40;99.90
12419;DHT22;6273;52.312;9.178;2022-09-09T01:25:30;15.50;99.90
12419;DHT22;6273;52.312;9.178;2022-09-09T01:28:03;15.50;99.90
12419;DHT22;6273;52.312;9.178;2022-09-09T01:30:31;15.50;99.90
12419;DHT22;6273;52.312;9.178;2022-09-09T01:32:58;15.50;99.90
12419;DHT22;6273;52.312;9.178;2022-09-09T01:37:56;15.50;99.90
12419;DHT22;6273;52.312;9.178;2022-09-09T01:40:22;15.50;99.90
12419;DHT22;6273;52.312;9.178;2022-09-09T01:42:48;15.50;99.90
12419;DHT22;6273;52.312;9.178;2022-09-09T01:45:14;15.50;99.90
12419;DHT22;6273;52.312;9.178;2022-09-09T01:50:15;15.40;99.90
12419;DHT22;6273;52.312;9.178;2022-09-09T01:52:43;15.40;99.90
12419;DHT22;6273;52.312;9.178;2022-09-09T01:55:10;15.40;99.90
12419;DHT22;6273;52.312;9.178;2022-09-09T02:00:11;15.30;99.90
12419;DHT22;6273;52.312;9.178;2022-09-09T02:03:00;15.20;99.90
12419;DHT22;6273;52.312;9.178;2022-09-09T02:08:09;15.30;99.90
12419;DHT22;6273;52.312;9.178;2022-09-09T02:10:53;15.30;99.90
12419;DHT22;6273;52.312;9.178;2022-09-09T02:13:21;15.20;99.90
12419;DHT22;6273;52.312;9.178;2022-09-09T02:15:52;15.20;99.90
12419;DHT22;6273;52.312;9.178;2022-09-09T02:18:25;15.30;99.90
12419;DHT22;6273;52.312;9.178;2022-09-09T02:20:53;15.40;99.90
12419;DHT22;6273;52.312;9.178;2022-09-09T02:23:19;15.40;99.90
12419;DHT22;6273;52.312;9.178;2022-09-09T02:25:46;15.40;99.90
12419;DHT22;6273;52.312;9.178;2022-09-09T02:28:14;15.50;99.90
12419;DHT22;6273;52.312;9.178;2022-09-09T02:30:42;15.50;99.90
12419;DHT22;6273;52.312;9.178;2022-09-09T02:33:14;15.40;99.90
12419;DHT22;6273;52.312;9.178;2022-09-09T02:35:40;15.50;99.90
12419;DHT22;6273;52.312;9.178;2022-09-09T02:40:42;15.50;99.90
12419;DHT22;6273;52.312;9.178;2022-09-09T02:43:08;15.50;99.90
12419;DHT22;6273;52.312;9.178;2022-09-09T02:46:17;15.50;99.90
12419;DHT22;6273;52.312;9.178;2022-09-09T02:49:06;15.60;99.90
12419;DHT22;6273;52.312;9.178;2022-09-09T02:54:26;15.60;99.90
12419;DHT22;6273;52.312;9.178;2022-09-09T02:59:37;15.80;99.90
12419;DHT22;6273;52.312;9.178;2022-09-09T03:02:03;15.70;99.90
12419;DHT22;6273;52.312;9.178;2022-09-09T03:04:29;15.80;99.90
12419;DHT22;6273;52.312;9.178;2022-09-09T03:07:08;15.80;99.90
12419;DHT22;6273;52.312;9.178;2022-09-09T03:09:35;15.80;99.90
12419;DHT22;6273;52.312;9.178;2022-09-09T03:12:00;15.80;99.90
12419;DHT22;6273;52.312;9.178;2022-09-09T03:14:26;15.90;99.90
12419;DHT22;6273;52.312;9.178;2022-09-09T03:19:27;15.90;99.90
12419;DHT22;6273;52.312;9.178;2022-09-09T03:21:53;15.90;99.90
12419;DHT22;6273;52.312;9.178;2022-09-09T03:24:19;15.90;99.90
12419;DHT22;6273;52.312;9.178;2022-09-09T03:26:45;15.90;99.90
12419;DHT22;6273;52.312;9.178;2022-09-09T03:29:13;15.90;99.90
12419;DHT22;6273;52.312;9.178;2022-09-09T03:31:40;15.80;99.90
12419;DHT22;6273;52.312;9.178;2022-09-09T03:34:06;15.80;99.90
12419;DHT22;6273;52.312;9.178;2022-09-09T03:37:11;15.80;99.90
12419;DHT22;6273;52.312;9.178;2022-09-09T03:39:36;15.80;99.90
12419;DHT22;6273;52.312;9.178;2022-09-09T03:42:02;15.80;99.90
12419;DHT22;6273;52.312;9.178;2022-09-09T03:44:31;15.80;99.90
12419;DHT22;6273;52.312;9.178;2022-09-09T03:49:29;15.70;99.90
12419;DHT22;6273;52.312;9.178;2022-09-09T03:51:56;15.90;99.90
12419;DHT22;6273;52.312;9.178;2022-09-09T03:54:23;15.80;99.90
12419;DHT22;6273;52.312;9.178;2022-09-09T04:02:00;15.70;99.90
12419;DHT22;6273;52.312;9.178;2022-09-09T04:04:25;15.70;99.90
12419;DHT22;6273;52.312;9.178;2022-09-09T04:12:02;15.70;99.90
12419;DHT22;6273;52.312;9.178;2022-09-09T04:14:28;15.70;99.90
12419;DHT22;6273;52.312;9.178;2022-09-09T04:17:07;15.70;99.90
12419;DHT22;6273;52.312;9.178;2022-09-09T04:19:33;15.90;99.90
12419;DHT22;6273;52.312;9.178;2022-09-09T04:21:58;15.70;99.90
12419;DHT22;6273;52.312;9.178;2022-09-09T04:24:24;15.70;99.90
12419;DHT22;6273;52.312;9.178;2022-09-09T04:29:28;15.70;99.90
12419;DHT22;6273;52.312;9.178;2022-09-09T04:31:53;15.70;99.90
12419;DHT22;6273;52.312;9.178;2022-09-09T04:34:19;15.70;99.90
12419;DHT22;6273;52.312;9.178;2022-09-09T04:39:17;15.70;99.90
12419;DHT22;6273;52.312;9.178;2022-09-09T04:41:43;15.80;99.90
12419;DHT22;6273;52.312;9.178;2022-09-09T04:44:08;15.80;99.90
12419;DHT22;6273;52.312;9.178;2022-09-09T04:57:02;15.80;99.90
12419;DHT22;6273;52.312;9.178;2022-09-09T04:59:28;15.80;99.90
12419;DHT22;6273;52.312;9.178;2022-09-09T05:01:53;15.90;99.90
12419;DHT22;6273;52.312;9.178;2022-09-09T05:04:21;15.90;99.90
12419;DHT22;6273;52.312;9.178;2022-09-09T05:09:22;15.90;99.90
12419;DHT22;6273;52.312;9.178;2022-09-09T05:11:47;15.90;99.90
12419;DHT22;6273;52.312;9.178;2022-09-09T05:14:13;15.90;99.90
12419;DHT22;6273;52.312;9.178;2022-09-09T05:19:07;16.00;99.90
12419;DHT22;6273;52.312;9.178;2022-09-09T05:21:34;16.00;99.90
12419;DHT22;6273;52.312;9.178;2022-09-09T05:23:59;16.00;99.90
12419;DHT22;6273;52.312;9.178;2022-09-09T05:35:43;16.30;99.90
12419;DHT22;6273;52.312;9.178;2022-09-09T05:41:26;16.40;99.90
12419;DHT22;6273;52.312;9.178;2022-09-09T05:43:54;16.30;99.90
12419;DHT22;6273;52.312;9.178;2022-09-09T05:46:21;16.40;99.90
12419;DHT22;6273;52.312;9.178;2022-09-09T05:55:22;16.80;99.90
12419;DHT22;6273;52.312;9.178;2022-09-09T06:00:52;16.60;99.90
12419;DHT22;6273;52.312;9.178;2022-09-09T06:03:18;16.50;99.90
12419;DHT22;6273;52.312;9.178;2022-09-09T06:05:43;16.40;99.90
12419;DHT22;6273;52.312;9.178;2022-09-09T06:08:09;16.30;99.90
12419;DHT22;6273;52.312;9.178;2022-09-09T06:10:34;16.20;99.90
12419;DHT22;6273;52.312;9.178;2022-09-09T06:13:00;16.10;99.90
12419;DHT22;6273;52.312;9.178;2022-09-09T06:15:25;16.00;99.90
12419;DHT22;6273;52.312;9.178;2022-09-09T06:17:55;16.10;99.90
12419;DHT22;6273;52.312;9.178;2022-09-09T06:20:21;16.10;99.90
12419;DHT22;6273;52.312;9.178;2022-09-09T06:22:47;16.10;99.90
12419;DHT22;6273;52.312;9.178;2022-09-09T06:25:14;16.20;99.90
12419;DHT22;6273;52.312;9.178;2022-09-09T06:37:08;16.70;99.90
12419;DHT22;6273;52.312;9.178;2022-09-09T06:39:34;16.80;99.90
12419;DHT22;6273;52.312;9.178;2022-09-09T06:41:59;17.10;99.90
12419;DHT22;6273;52.312;9.178;2022-09-09T06:44:25;18.00;99.90
12419;DHT22;6273;52.312;9.178;2022-09-09T06:46:52;18.80;99.90
12419;DHT22;6273;52.312;9.178;2022-09-09T06:49:18;20.40;99.90
12419;DHT22;6273;52.312;9.178;2022-09-09T06:51:44;22.50;99.90
12419;DHT22;6273;52.312;9.178;2022-09-09T06:54:11;24.60;99.90
12419;DHT22;6273;52.312;9.178;2022-09-09T06:56:40;25.20;99.90
12419;DHT22;6273;52.312;9.178;2022-09-09T06:59:09;24.90;99.90
12419;DHT22;6273;52.312;9.178;2022-09-09T07:01:37;24.80;99.90
12419;DHT22;6273;52.312;9.178;2022-09-09T07:04:04;25.50;99.90
12419;DHT22;6273;52.312;9.178;2022-09-09T07:06:34;26.50;99.90
12419;DHT22;6273;52.312;9.178;2022-09-09T07:09:03;27.50;99.90
12419;DHT22;6273;52.312;9.178;2022-09-09T07:11:31;28.70;99.90
12419;DHT22;6273;52.312;9.178;2022-09-09T07:13:58;29.40;99.90
12419;DHT22;6273;52.312;9.178;2022-09-09T07:16:25;28.50;99.90
12419;DHT22;6273;52.312;9.178;2022-09-09T07:18:54;27.20;99.90
12419;DHT22;6273;52.312;9.178;2022-09-09T07:21:24;25.20;99.90
12419;DHT22;6273;52.312;9.178;2022-09-09T07:23:51;24.40;99.90
12419;DHT22;6273;52.312;9.178;2022-09-09T07:26:20;24.10;99.90
12419;DHT22;6273;52.312;9.178;2022-09-09T07:28:47;23.40;99.90
12419;DHT22;6273;52.312;9.178;2022-09-09T07:31:20;23.30;99.90
12419;DHT22;6273;52.312;9.178;2022-09-09T07:33:47;23.20;99.90
12419;DHT22;6273;52.312;9.178;2022-09-09T07:36:16;23.00;99.90
12419;DHT22;6273;52.312;9.178;2022-09-09T07:38:47;22.50;99.90
12419;DHT22;6273;52.312;9.178;2022-09-09T07:41:20;22.10;99.90
12419;DHT22;6273;52.312;9.178;2022-09-09T07:43:47;21.70;99.90
12419;DHT22;6273;52.312;9.178;2022-09-09T07:46:15;21.40;99.90
12419;DHT22;6273;52.312;9.178;2022-09-09T07:48:52;21.00;99.90
12419;DHT22;6273;52.312;9.178;2022-09-09T07:51:26;20.50;99.90
12419;DHT22;6273;52.312;9.178;2022-09-09T07:53:57;20.20;99.90
12419;DHT22;6273;52.312;9.178;2022-09-09T07:56:25;20.10;99.90
12419;DHT22;6273;52.312;9.178;2022-09-09T07:58:52;20.00;99.90
12419;DHT22;6273;52.312;9.178;2022-09-09T08:01:24;19.90;99.90
12419;DHT22;6273;52.312;9.178;2022-09-09T08:03:56;19.90;99.90
12419;DHT22;6273;52.312;9.178;2022-09-09T08:06:25;19.80;99.90
12419;DHT22;6273;52.312;9.178;2022-09-09T08:08:52;19.80;99.90
12419;DHT22;6273;52.312;9.178;2022-09-09T08:11:18;19.60;99.90
12419;DHT22;6273;52.312;9.178;2022-09-09T08:13:44;19.50;99.90
12419;DHT22;6273;52.312;9.178;2022-09-09T08:16:15;19.40;99.90
12419;DHT22;6273;52.312;9.178;2022-09-09T08:18:42;19.50;99.90
12419;DHT22;6273;52.312;9.178;2022-09-09T08:21:17;19.60;99.90
12419;DHT22;6273;52.312;9.178;2022-09-09T08:23:44;19.70;99.90
12419;DHT22;6273;52.312;9.178;2022-09-09T08:26:16;19.70;99.90
12419;DHT22;6273;52.312;9.178;2022-09-09T08:28:43;19.70;99.90
12419;DHT22;6273;52.312;9.178;2022-09-09T08:31:16;19.90;99.90
12419;DHT22;6273;52.312;9.178;2022-09-09T08:33:42;20.10;99.90
12419;DHT22;6273;52.312;9.178;2022-09-09T08:36:14;20.20;99.90
12419;DHT22;6273;52.312;9.178;2022-09-09T08:38:56;20.20;99.90
12419;DHT22;6273;52.312;9.178;2022-09-09T09:09:56;20.30;99.90
12419;DHT22;6273;52.312;9.178;2022-09-09T09:12:28;20.20;99.90
12419;DHT22;6273;52.312;9.178;2022-09-09T09:14:55;20.20;99.90
12419;DHT22;6273;52.312;9.178;2022-09-09T09:17:25;20.20;99.90
12419;DHT22;6273;52.312;9.178;2022-09-09T09:19:53;20.30;99.90
12419;DHT22;6273;52.312;9.178;2022-09-09T09:22:30;20.30;99.90
12419;DHT22;6273;52.312;9.178;2022-09-09T09:25:13;20.50;99.90
12419;DHT22;6273;52.312;9.178;2022-09-09T12:32:15;24.00;99.90
12419;DHT22;6273;52.312;9.178;2022-09-09T12:34:47;23.90;99.90
12419;DHT22;6273;52.312;9.178;2022-09-09T12:37:35;23.90;99.90
12419;DHT22;6273;52.312;9.178;2022-09-09T12:40:04;24.00;99.90
12419;DHT22;6273;52.312;9.178;2022-09-09T12:42:30;23.80;99.90
12419;DHT22;6273;52.312;9.178;2022-09-09T12:45:03;23.90;99.90
12419;DHT22;6273;52.312;9.178;2022-09-09T12:47:41;24.00;99.90
12419;DHT22;6273;52.312;9.178;2022-09-09T12:50:26;24.10;99.90
12419;DHT22;6273;52.312;9.178;2022-09-09T12:53:33;23.90;99.90
12419;DHT22;6273;52.312;9.178;2022-09-09T12:56:06;23.80;99.90
12419;DHT22;6273;52.312;9.178;2022-09-09T12:58:36;23.80;99.90
12419;DHT22;6273;52.312;9.178;2022-09-09T13:01:04;23.70;99.90
12419;DHT22;6273;52.312;9.178;2022-09-09T13:03:32;23.60;99.90
12419;DHT22;6273;52.312;9.178;2022-09-09T13:06:12;23.70;99.90
12419;DHT22;6273;52.312;9.178;2022-09-09T13:08:39;23.80;99.90
12419;DHT22;6273;52.312;9.178;2022-09-09T13:11:23;24.00;99.90
12419;DHT22;6273;52.312;9.178;2022-09-09T13:13:52;24.00;99.90
12419;DHT22;6273;52.312;9.178;2022-09-09T13:16:26;24.00;99.90
12419;DHT22;6273;52.312;9.178;2022-09-09T13:18:56;23.90;99.90
12419;DHT22;6273;52.312;9.178;2022-09-09T13:21:34;23.90;99.90
12419;DHT22;6273;52.312;9.178;2022-09-09T13:24:01;23.60;99.90
12419;DHT22;6273;52.312;9.178;2022-09-09T13:26:29;23.60;99.90
12419;DHT22;6273;52.312;9.178;2022-09-09T13:29:07;23.30;99.90
12419;DHT22;6273;52.312;9.178;2022-09-09T13:31:35;23.20;99.90
12419;DHT22;6273;52.312;9.178;2022-09-09T13:34:14;23.40;99.90
12419;DHT22;6273;52.312;9.178;2022-09-09T13:37:05;23.50;99.90
12419;DHT22;6273;52.312;9.178;2022-09-09T13:39:35;23.30;99.90
12419;DHT22;6273;52.312;9.178;2022-09-09T13:42:02;23.40;99.90
12419;DHT22;6273;52.312;9.178;2022-09-09T13:44:40;23.70;99.90
12419;DHT22;6273;52.312;9.178;2022-09-09T13:47:17;23.90;99.90
12419;DHT22;6273;52.312;9.178;2022-09-09T13:49:44;23.90;99.90
12419;DHT22;6273;52.312;9.178;2022-09-09T13:52:14;23.80;99.90
12419;DHT22;6273;52.312;9.178;2022-09-09T13:54:42;23.80;99.90
12419;DHT22;6273;52.312;9.178;2022-09-09T13:59:46;23.50;99.90
12419;DHT22;6273;52.312;9.178;2022-09-09T14:02:12;23.40;99.90
12419;DHT22;6273;52.312;9.178;2022-09-09T14:04:37;23.30;99.90
12419;DHT22;6273;52.312;9.178;2022-09-09T14:07:03;23.10;99.90
12419;DHT22;6273;52.312;9.178;2022-09-09T14:09:29;22.90;99.90
12419;DHT22;6273;52.312;9.178;2022-09-09T14:11:54;22.80;99.90
12419;DHT22;6273;52.312;9.178;2022-09-09T14:14:20;22.60;99.90
12419;DHT22;6273;52.312;9.178;2022-09-09T14:16:46;22.50;99.90
12419;DHT22;6273;52.312;9.178;2022-09-09T14:19:12;22.40;99.90
12419;DHT22;6273;52.312;9.178;2022-09-09T14:21:38;22.30;99.90
12419;DHT22;6273;52.312;9.178;2022-09-09T14:24:04;22.20;99.90
12419;DHT22;6273;52.312;9.178;2022-09-09T14:26:30;22.20;99.90
12419;DHT22;6273;52.312;9.178;2022-09-09T14:28:56;22.00;99.90
12419;DHT22;6273;52.312;9.178;2022-09-09T14:31:22;22.00;99.90
12419;DHT22;6273;52.312;9.178;2022-09-09T14:33:48;22.10;99.90
12419;DHT22;6273;52.312;9.178;2022-09-09T14:36:14;22.00;99.90
12419;DHT22;6273;52.312;9.178;2022-09-09T14:38:40;22.00;99.90
12419;DHT22;6273;52.312;9.178;2022-09-09T14:41:10;21.80;99.90
12419;DHT22;6273;52.312;9.178;2022-09-09T14:43:38;21.70;99.90
12419;DHT22;6273;52.312;9.178;2022-09-09T14:46:08;21.70;99.90
12419;DHT22;6273;52.312;9.178;2022-09-09T14:48:34;21.70;99.90
12419;DHT22;6273;52.312;9.178;2022-09-09T14:53:32;21.90;99.90
12419;DHT22;6273;52.312;9.178;2022-09-09T14:56:09;21.90;99.90
12419;DHT22;6273;52.312;9.178;2022-09-09T14:58:35;22.00;99.90
12419;DHT22;6273;52.312;9.178;2022-09-09T15:01:06;22.00;99.90
12419;DHT22;6273;52.312;9.178;2022-09-09T15:03:32;22.20;99.90
12419;DHT22;6273;52.312;9.178;2022-09-09T15:05:58;22.30;99.90
12419;DHT22;6273;52.312;9.178;2022-09-09T15:08:29;22.40;99.90
12419;DHT22;6273;52.312;9.178;2022-09-09T15:11:02;22.40;99.90
12419;DHT22;6273;52.312;9.178;2022-09-09T15:13:28;22.50;99.90
12419;DHT22;6273;52.312;9.178;2022-09-09T15:15:54;22.60;99.90
12419;DHT22;6273;52.312;9.178;2022-09-09T15:18:20;22.70;99.90
12419;DHT22;6273;52.312;9.178;2022-09-09T15:20:46;22.80;99.90
12419;DHT22;6273;52.312;9.178;2022-09-09T15:23:13;22.80;99.90
12419;DHT22;6273;52.312;9.178;2022-09-09T15:25:53;22.80;99.90
12419;DHT22;6273;52.312;9.178;2022-09-09T15:28:19;22.90;99.90
12419;DHT22;6273;52.312;9.178;2022-09-09T15:30:47;23.00;99.90
12419;DHT22;6273;52.312;9.178;2022-09-09T15:33:13;23.20;99.90
12419;DHT22;6273;52.312;9.178;2022-09-09T15:35:39;23.30;99.90
12419;DHT22;6273;52.312;9.178;2022-09-09T15:38:04;23.20;99.90
12419;DHT22;6273;52.312;9.178;2022-09-09T15:40:30;23.10;99.90
12419;DHT22;6273;52.312;9.178;2022-09-09T15:42:58;23.00;99.90
12419;DHT22;6273;52.312;9.178;2022-09-09T15:45:23;22.70;99.90
12419;DHT22;6273;52.312;9.178;2022-09-09T15:47:49;22.60;99.90
12419;DHT22;6273;52.312;9.178;2022-09-09T15:50:15;22.40;99.90
12419;DHT22;6273;52.312;9.178;2022-09-09T15:52:40;22.30;99.90
12419;DHT22;6273;52.312;9.178;2022-09-09T15:55:07;22.20;99.90
12419;DHT22;6273;52.312;9.178;2022-09-09T15:57:34;22.20;99.90
12419;DHT22;6273;52.312;9.178;2022-09-09T16:00:00;22.20;99.90
12419;DHT22;6273;52.312;9.178;2022-09-09T16:02:26;22.00;99.90
12419;DHT22;6273;52.312;9.178;2022-09-09T16:04:52;21.90;99.90
12419;DHT22;6273;52.312;9.178;2022-09-09T16:07:18;21.80;99.90
12419;DHT22;6273;52.312;9.178;2022-09-09T16:09:43;21.90;99.90
12419;DHT22;6273;52.312;9.178;2022-09-09T16:12:09;21.60;99.90
12419;DHT22;6273;52.312;9.178;2022-09-09T16:14:37;21.50;99.90
12419;DHT22;6273;52.312;9.178;2022-09-09T16:17:05;21.50;99.90
12419;DHT22;6273;52.312;9.178;2022-09-09T16:19:31;21.40;99.90
12419;DHT22;6273;52.312;9.178;2022-09-09T16:21:57;21.60;99.90
12419;DHT22;6273;52.312;9.178;2022-09-09T16:24:23;21.50;99.90
12419;DHT22;6273;52.312;9.178;2022-09-09T16:26:53;21.40;99.90
12419;DHT22;6273;52.312;9.178;2022-09-09T16:29:20;21.40;99.90
12419;DHT22;6273;52.312;9.178;2022-09-09T16:31:47;21.40;99.90
12419;DHT22;6273;52.312;9.178;2022-09-09T16:34:14;21.50;99.90
12419;DHT22;6273;52.312;9.178;2022-09-09T16:36:41;21.50;99.90
12419;DHT22;6273;52.312;9.178;2022-09-09T16:39:13;21.70;99.90
12419;DHT22;6273;52.312;9.178;2022-09-09T16:41:40;21.40;99.90
12419;DHT22;6273;52.312;9.178;2022-09-09T16:44:08;21.70;99.90
12419;DHT22;6273;52.312;9.178;2022-09-09T16:46:36;21.70;99.90
12419;DHT22;6273;52.312;9.178;2022-09-09T16:49:05;21.70;99.90
12419;DHT22;6273;52.312;9.178;2022-09-09T16:51:37;21.70;99.90
12419;DHT22;6273;52.312;9.178;2022-09-09T16:54:05;21.70;99.90
12419;DHT22;6273;52.312;9.178;2022-09-09T16:56:36;21.70;99.90
12419;DHT22;6273;52.312;9.178;2022-09-09T16:59:10;21.70;99.90
12419;DHT22;6273;52.312;9.178;2022-09-09T17:01:37;21.70;99.90
12419;DHT22;6273;52.312;9.178;2022-09-09T17:04:05;21.70;99.90
12419;DHT22;6273;52.312;9.178;2022-09-09T17:06:32;21.60;99.90
12419;DHT22;6273;52.312;9.178;2022-09-09T17:09:05;21.50;99.90
12419;DHT22;6273;52.312;9.178;2022-09-09T17:11:31;21.60;99.90
12419;DHT22;6273;52.312;9.178;2022-09-09T17:13:58;21.60;99.90
12419;DHT22;6273;52.312;9.178;2022-09-09T17:16:25;21.20;99.90
12419;DHT22;6273;52.312;9.178;2022-09-09T17:18:53;21.20;99.90
12419;DHT22;6273;52.312;9.178;2022-09-09T17:21:22;21.10;99.90
12419;DHT22;6273;52.312;9.178;2022-09-09T17:23:49;21.00;99.90
12419;DHT22;6273;52.312;9.178;2022-09-09T17:26:17;20.90;99.90
12419;DHT22;6273;52.312;9.178;2022-09-09T17:28:43;20.70;99.90
12419;DHT22;6273;52.312;9.178;2022-09-09T17:31:12;20.70;99.90
12419;DHT22;6273;52.312;9.178;2022-09-09T17:33:40;20.50;99.90
12419;DHT22;6273;52.312;9.178;2022-09-09T17:36:10;20.50;99.90
12419;DHT22;6273;52.312;9.178;2022-09-09T17:38:37;20.40;99.90
12419;DHT22;6273;52.312;9.178;2022-09-09T17:41:07;20.40;99.90
12419;DHT22;6273;52.312;9.178;2022-09-09T17:43:34;20.40;99.90
12419;DHT22;6273;52.312;9.178;2022-09-09T17:49:13;20.40;99.90
12419;DHT22;6273;52.312;9.178;2022-09-09T17:51:39;19.60;99.90
12419;DHT22;6273;52.312;9.178;2022-09-09T17:54:10;19.10;99.90
12419;DHT22;6273;52.312;9.178;2022-09-09T17:56:37;18.70;99.90
12419;DHT22;6273;52.312;9.178;2022-09-09T17:59:05;18.50;99.90
12419;DHT22;6273;52.312;9.178;2022-09-09T18:01:33;18.30;99.90
12419;DHT22;6273;52.312;9.178;2022-09-09T18:04:01;18.30;99.90
12419;DHT22;6273;52.312;9.178;2022-09-09T18:06:33;18.20;99.90
12419;DHT22;6273;52.312;9.178;2022-09-09T18:09:06;18.10;99.90
12419;DHT22;6273;52.312;9.178;2022-09-09T18:11:38;17.90;99.90
12419;DHT22;6273;52.312;9.178;2022-09-09T18:14:08;17.70;99.90
12419;DHT22;6273;52.312;9.178;2022-09-09T18:16:35;17.60;99.90
12419;DHT22;6273;52.312;9.178;2022-09-09T18:19:07;17.30;99.90
12419;DHT22;6273;52.312;9.178;2022-09-09T18:21:34;17.20;99.90
12419;DHT22;6273;52.312;9.178;2022-09-09T18:24:03;17.00;99.90
12419;DHT22;6273;52.312;9.178;2022-09-09T18:26:30;16.90;99.90
12419;DHT22;6273;52.312;9.178;2022-09-09T18:28:59;16.70;99.90
12419;DHT22;6273;52.312;9.178;2022-09-09T18:31:27;16.60;99.90
12419;DHT22;6273;52.312;9.178;2022-09-09T18:33:55;16.60;99.90
12419;DHT22;6273;52.312;9.178;2022-09-09T18:36:25;16.50;99.90
12419;DHT22;6273;52.312;9.178;2022-09-09T18:38:52;16.50;99.90
12419;DHT22;6273;52.312;9.178;2022-09-09T18:41:19;16.40;99.90
12419;DHT22;6273;52.312;9.178;2022-09-09T18:43:50;16.30;99.90
12419;DHT22;6273;52.312;9.178;2022-09-09T18:46:17;16.30;99.90
12419;DHT22;6273;52.312;9.178;2022-09-09T18:48:44;16.40;99.90
12419;DHT22;6273;52.312;9.178;2022-09-09T18:51:14;16.40;99.90
12419;DHT22;6273;52.312;9.178;2022-09-09T18:53:42;16.50;99.90
12419;DHT22;6273;52.312;9.178;2022-09-09T18:56:10;16.50;99.90
12419;DHT22;6273;52.312;9.178;2022-09-09T18:58:37;16.50;99.90
12419;DHT22;6273;52.312;9.178;2022-09-09T19:01:04;16.50;99.90
12419;DHT22;6273;52.312;9.178;2022-09-09T19:03:34;16.40;99.90
12419;DHT22;6273;52.312;9.178;2022-09-09T19:06:06;16.40;99.90
12419;DHT22;6273;52.312;9.178;2022-09-09T19:08:34;16.40;99.90
12419;DHT22;6273;52.312;9.178;2022-09-09T19:11:05;16.50;99.90
12419;DHT22;6273;52.312;9.178;2022-09-09T19:13:32;16.40;99.90
12419;DHT22;6273;52.312;9.178;2022-09-09T19:16:09;16.50;99.90
12419;DHT22;6273;52.312;9.178;2022-09-09T19:18:35;16.50;99.90
12419;DHT22;6273;52.312;9.178;2022-09-09T19:21:23;16.40;99.90
12419;DHT22;6273;52.312;9.178;2022-09-09T19:23:56;16.40;99.90
12419;DHT22;6273;52.312;9.178;2022-09-09T19:26:25;16.40;99.90
12419;DHT22;6273;52.312;9.178;2022-09-09T19:28:51;16.40;99.90
12419;DHT22;6273;52.312;9.178;2022-09-09T19:31:19;16.30;99.90
12419;DHT22;6273;52.312;9.178;2022-09-09T19:33:49;16.40;99.90
12419;DHT22;6273;52.312;9.178;2022-09-09T19:36:17;16.30;99.90
12419;DHT22;6273;52.312;9.178;2022-09-09T19:38:44;16.20;99.90
12419;DHT22;6273;52.312;9.178;2022-09-09T19:41:22;16.20;99.90
12419;DHT22;6273;52.312;9.178;2022-09-09T19:43:49;16.20;99.90
12419;DHT22;6273;52.312;9.178;2022-09-09T19:46:17;16.10;99.90
12419;DHT22;6273;52.312;9.178;2022-09-09T19:48:44;16.20;99.90
12419;DHT22;6273;52.312;9.178;2022-09-09T19:51:13;16.30;99.90
12419;DHT22;6273;52.312;9.178;2022-09-09T19:53:48;16.20;99.90
12419;DHT22;6273;52.312;9.178;2022-09-09T19:56:16;16.20;99.90
12419;DHT22;6273;52.312;9.178;2022-09-09T19:58:45;16.20;99.90
12419;DHT22;6273;52.312;9.178;2022-09-09T20:01:23;16.10;99.90
12419;DHT22;6273;52.312;9.178;2022-09-09T20:03:51;16.00;99.90
12419;DHT22;6273;52.312;9.178;2022-09-09T20:06:22;16.10;99.90
12419;DHT22;6273;52.312;9.178;2022-09-09T20:08:51;16.00;99.90
12419;DHT22;6273;52.312;9.178;2022-09-09T20:11:18;16.00;99.90
12419;DHT22;6273;52.312;9.178;2022-09-09T20:13:45;16.00;99.90
12419;DHT22;6273;52.312;9.178;2022-09-09T20:16:14;16.00;99.90
12419;DHT22;6273;52.312;9.178;2022-09-09T20:18:44;16.00;99.90
12419;DHT22;6273;52.312;9.178;2022-09-09T20:21:13;16.00;99.90
12419;DHT22;6273;52.312;9.178;2022-09-09T20:23:43;16.00;99.90
12419;DHT22;6273;52.312;9.178;2022-09-09T20:26:11;16.00;99.90
12419;DHT22;6273;52.312;9.178;2022-09-09T20:28:39;16.10;99.90
12419;DHT22;6273;52.312;9.178;2022-09-09T20:31:07;16.00;99.90
12419;DHT22;6273;52.312;9.178;2022-09-09T20:33:34;16.00;99.90
12419;DHT22;6273;52.312;9.178;2022-09-09T20:36:12;16.00;99.90
12419;DHT22;6273;52.312;9.178;2022-09-09T20:38:46;16.10;99.90
12419;DHT22;6273;52.312;9.178;2022-09-09T20:41:14;16.10;99.90
12419;DHT22;6273;52.312;9.178;2022-09-09T20:44:03;16.10;99.90
12419;DHT22;6273;52.312;9.178;2022-09-09T20:46:32;16.10;99.90
12419;DHT22;6273;52.312;9.178;2022-09-09T20:48:59;16.00;99.90
12419;DHT22;6273;52.312;9.178;2022-09-09T20:51:26;16.00;99.90
12419;DHT22;6273;52.312;9.178;2022-09-09T20:53:59;16.00;99.90
12419;DHT22;6273;52.312;9.178;2022-09-09T20:56:26;15.90;99.90
12419;DHT22;6273;52.312;9.178;2022-09-09T20:58:52;15.80;99.90
12419;DHT22;6273;52.312;9.178;2022-09-09T21:01:19;15.80;99.90
12419;DHT22;6273;52.312;9.178;2022-09-09T21:03:46;15.80;99.90
12419;DHT22;6273;52.312;9.178;2022-09-09T21:06:12;15.70;99.90
12419;DHT22;6273;52.312;9.178;2022-09-09T21:08:39;15.80;99.90
12419;DHT22;6273;52.312;9.178;2022-09-09T21:11:06;15.80;99.90
12419;DHT22;6273;52.312;9.178;2022-09-09T21:13:33;15.70;99.90
12419;DHT22;6273;52.312;9.178;2022-09-09T21:15:59;15.80;99.90
12419;DHT22;6273;52.312;9.178;2022-09-09T21:18:25;15.70;99.90
12419;DHT22;6273;52.312;9.178;2022-09-09T21:20:55;15.70;99.90
12419;DHT22;6273;52.312;9.178;2022-09-09T21:23:21;15.70;99.90
12419;DHT22;6273;52.312;9.178;2022-09-09T21:25:48;15.60;99.90
12419;DHT22;6273;52.312;9.178;2022-09-09T21:28:15;15.70;99.90
12419;DHT22;6273;52.312;9.178;2022-09-09T21:30:41;15.70;99.90
12419;DHT22;6273;52.312;9.178;2022-09-09T21:33:08;15.80;99.90
12419;DHT22;6273;52.312;9.178;2022-09-09T21:35:39;15.80;99.90
12419;DHT22;6273;52.312;9.178;2022-09-09T21:38:06;15.80;99.90
12419;DHT22;6273;52.312;9.178;2022-09-09T21:40:35;15.80;99.90
12419;DHT22;6273;52.312;9.178;2022-09-09T21:43:02;15.80;99.90
12419;DHT22;6273;52.312;9.178;2022-09-09T21:45:28;15.90;99.90
12419;DHT22;6273;52.312;9.178;2022-09-09T21:47:54;15.90;99.90
12419;DHT22;6273;52.312;9.178;2022-09-09T21:50:20;15.90;99.90
12419;DHT22;6273;52.312;9.178;2022-09-09T21:52:47;16.00;99.90
12419;DHT22;6273;52.312;9.178;2022-09-09T21:55:13;16.00;99.90